Wrightstown, Pennsylvania
Current Conditions -  °F | °C
As of 6:53 AM on Friday 31 Oct 2014 (Local Time) from KTTN Reporting Station
Scattered Clouds Scattered Clouds  
Wind Chill: 31°   Ceiling: Unl
Heat Index: 36°   Visibility: 10mi
Dew Point: 31°   Wind: 6mph
Humidity: 82%   Direction: 330°NNW
Pressure: 30.01"   Gusts: NA
Location:  40.2672°N, 74.9516°W
Report Text: KTTN 311053Z 33005KT 10SM SCT034 02/M01 A3001 RMK AO2 SLP157 T00221006
Loading
Personal Weather Stations






























Interactive Weather Map
Tropical Storm Tracking
New forecast layout! Learn more

10-Day Weather Forecast

Advertisements
Track Severe Weather on mobile